KABQ/ABQ METAR and TAF weather

Enter ICAO airport designator
Station Type Date Time Source
KABQ METAR 2019/04/25 01:52 UTC NOAA

KABQ 250152Z 31009KT 10SM SCT110 21/M02 A2996 RMK AO2 SLP090 T02111017 $


Station Type Date Time Source
KABQ Decoded METAR 2019/04/25 01:52 UTC NOAA

ALBUQUERQUE INTERNATIONAL AIRPORT, NM, United States (KABQ) 35-02N 106-36W 1618M
Apr 24, 2019 - 09:52 PM EDT / 2019.04.25 0152 UTC
Wind: from the NW (310 degrees) at 10 MPH (9 KT):0
Visibility: 10 mile(s):0
Sky conditions: partly cloudy
Temperature: 70.0 F (21.1 C)
Dew Point: 28.9 F (-1.7 C)
Relative Humidity: 21%
Pressure (altimeter): 29.96 in. Hg (1014 hPa)
ob: KABQ 250152Z 31009KT 10SM SCT110 21/M02 A2996 RMK AO2 SLP090 T02111017
cycle: 2

Station Type Date Time Source
KABQ TAF 2019/04/24 18:22 UTC NOAA

TAF KABQ 241720Z 2418/2518 34012G18KT P6SM SCT040
FM242000 32012KT P6SM SCT070
FM250200 35006KT P6SM SKC
FM251700 VRB06KT P6SM FEW070

Example: see airport list